Time;durP1;ratioP1;P1;durP2;ratioP2;P2;SDS_P1;SDS_P2;PMS_P1;PMS_P2;Temp;Humidity;BMP_temperature;BMP_pressure;BME280_temperature;BME280_humidity;BME280_pressure;Samples;Min_cycle;Max_cycle;Signal;HPM_P1;HPM_P2
2023/06/03 00:01:28;;;;;;;6.50;4.95;;;21.10;90.10;;;;;;5095967;28;20020;-78
2023/06/03 00:03:54;;;;;;;6.15;4.70;;;21.10;90.10;;;;;;5095936;28;20074;-78
2023/06/03 00:06:20;;;;;;;8.23;5.75;;;21.10;90.10;;;;;;5077645;28;20035;-78
2023/06/03 00:08:46;;;;;;;7.75;5.63;;;21.10;90.10;;;;;;5095824;28;20077;-78
2023/06/03 00:11:13;;;;;;;7.78;4.88;;;21.10;90.20;;;;;;5095574;28;20059;-77
2023/06/03 00:13:39;;;;;;;5.60;5.00;;;21.00;90.20;;;;;;5095889;28;20012;-78
2023/06/03 00:16:05;;;;;;;5.15;4.63;;;21.10;90.30;;;;;;5095730;28;20074;-76
2023/06/03 00:18:31;;;;;;;5.75;4.90;;;21.00;90.30;;;;;;5095207;28;20111;-77
2023/06/03 00:20:57;;;;;;;10.80;4.90;;;21.00;90.20;;;;;;5095300;28;20020;-77
2023/06/03 00:23:23;;;;;;;5.55;4.35;;;21.10;90.10;;;;;;5095622;28;20051;-77
2023/06/03 00:25:49;;;;;;;6.18;4.78;;;21.00;90.10;;;;;;5077352;28;20040;-78
2023/06/03 00:28:15;;;;;;;8.80;4.90;;;21.00;90.20;;;;;;5095607;28;20016;-78
2023/06/03 00:30:41;;;;;;;6.20;5.10;;;21.00;90.20;;;;;;5095166;28;20043;-78
2023/06/03 00:33:07;;;;;;;6.38;4.55;;;21.00;90.20;;;;;;5095321;28;20472;-78
2023/06/03 00:35:33;;;;;;;6.43;4.60;;;20.90;89.80;;;;;;5095332;28;20035;-77
2023/06/03 00:37:59;;;;;;;6.65;4.72;;;20.90;90.00;;;;;;5095212;28;20020;-78
2023/06/03 00:40:25;;;;;;;5.50;4.57;;;20.90;90.00;;;;;;5094978;28;20031;-78
2023/06/03 00:42:51;;;;;;;5.80;4.93;;;20.90;90.00;;;;;;5093973;28;20020;-78
2023/06/03 00:45:17;;;;;;;6.40;4.05;;;20.90;90.00;;;;;;5095058;28;20035;-77
2023/06/03 00:47:43;;;;;;;8.27;4.38;;;20.90;89.80;;;;;;5095304;28;20056;-78
2023/06/03 00:50:11;;;;;;;5.68;4.45;;;20.90;90.00;;;;;;5095263;28;20101;-77
2023/06/03 00:52:38;;;;;;;5.72;4.18;;;20.90;90.00;;;;;;5095515;28;20028;-77
2023/06/03 00:55:05;;;;;;;5.15;4.18;;;20.90;90.00;;;;;;5095052;28;20115;-78
2023/06/03 00:57:31;;;;;;;8.77;4.63;;;20.90;89.80;;;;;;5094150;28;20025;-78
2023/06/03 00:59:56;;;;;;;6.30;4.43;;;20.80;89.80;;;;;;5092356;28;20028;-77
2023/06/03 01:02:23;;;;;;;5.80;3.97;;;20.90;90.10;;;;;;5092471;28;20024;-78
2023/06/03 01:04:50;;;;;;;6.30;4.22;;;20.90;89.90;;;;;;5093482;28;20103;-78
2023/06/03 01:07:42;;;;;;;6.88;5.20;;;20.90;90.20;;;;;;5094235;28;20036;-78
2023/06/03 01:10:17;;;;;;;5.88;4.82;;;20.80;90.20;;;;;;5094619;28;20072;-78
2023/06/03 01:12:46;;;;;;;5.80;4.10;;;20.80;90.10;;;;;;5094236;28;20554;-77
2023/06/03 01:15:21;;;;;;;5.85;4.22;;;20.90;90.30;;;;;;5094372;28;20024;-78
2023/06/03 01:17:50;;;;;;;4.30;3.88;;;20.80;90.10;;;;;;5094695;28;20423;-77
2023/06/03 01:20:17;;;;;;;6.55;3.80;;;20.80;89.70;;;;;;5094449;28;20109;-79
2023/06/03 01:22:49;;;;;;;4.50;3.70;;;20.80;89.50;;;;;;5094413;28;20032;-78
2023/06/03 01:25:16;;;;;;;4.25;3.35;;;20.80;89.20;;;;;;5094221;28;20024;-78
2023/06/03 01:27:48;;;;;;;5.03;3.35;;;20.80;89.10;;;;;;5075821;28;20032;-78
2023/06/03 01:30:19;;;;;;;;;;;20.80;89.40;;;;;;5076463;28;20024;-78
2023/06/03 01:32:48;;;;;;;6.32;4.18;;;20.80;89.80;;;;;;5094087;28;19911;-78
2023/06/03 01:35:14;;;;;;;3.90;3.35;;;20.80;89.90;;;;;;5093664;28;20016;-78
2023/06/03 01:37:41;;;;;;;7.63;3.50;;;20.80;90.00;;;;;;5094077;28;20357;-78
2023/06/03 01:40:08;;;;;;;9.32;3.30;;;20.70;89.40;;;;;;5093946;28;20045;-78
2023/06/03 01:42:35;;;;;;;5.95;3.15;;;20.70;89.50;;;;;;5094017;28;20073;-78
2023/06/03 01:45:03;;;;;;;5.50;3.33;;;20.70;89.00;;;;;;5094022;28;20440;-77
2023/06/03 01:47:29;;;;;;;3.63;2.90;;;20.70;88.90;;;;;;5093773;28;20107;-78
2023/06/03 01:49:55;;;;;;;4.68;3.58;;;20.70;88.50;;;;;;5093916;28;20032;-78
2023/06/03 01:52:20;;;;;;;5.13;3.00;;;20.70;88.30;;;;;;5093892;28;20464;-77
2023/06/03 01:54:47;;;;;;;3.17;2.88;;;20.70;88.10;;;;;;5093469;28;20016;-78
2023/06/03 01:57:13;;;;;;;5.05;3.38;;;20.70;88.40;;;;;;5093844;28;20023;-77
2023/06/03 01:59:38;;;;;;;4.47;3.13;;;20.70;88.80;;;;;;5093567;28;20479;-78
2023/06/03 02:02:05;;;;;;;4.72;3.50;;;20.70;89.30;;;;;;5093634;28;20024;-78
2023/06/03 02:04:31;;;;;;;6.72;3.33;;;20.60;89.00;;;;;;5093465;28;20024;-77
2023/06/03 02:06:59;;;;;;;5.18;3.17;;;20.60;88.90;;;;;;5093723;28;20040;-78
2023/06/03 02:09:27;;;;;;;5.05;3.10;;;20.60;88.50;;;;;;5093232;28;20048;-77
2023/06/03 02:11:54;;;;;;;5.22;3.08;;;20.60;88.00;;;;;;5075387;28;20028;-77
2023/06/03 02:14:20;;;;;;;3.83;2.42;;;20.60;87.10;;;;;;5093654;28;20503;-78
2023/06/03 02:16:48;;;;;;;9.23;3.15;;;20.60;86.70;;;;;;5093135;28;20058;-77
2023/06/03 02:19:14;;;;;;;7.03;3.67;;;20.60;86.10;;;;;;5093406;28;20476;-78
2023/06/03 02:21:42;;;;;;;10.52;4.25;;;20.60;86.80;;;;;;5093323;28;20059;-78
2023/06/03 02:24:08;;;;;;;6.10;3.50;;;20.60;87.80;;;;;;5093318;28;20028;-78
2023/06/03 02:26:35;;;;;;;5.82;3.90;;;20.60;88.20;;;;;;5093202;28;20060;-77
2023/06/03 02:29:05;;;;;;;8.30;3.72;;;20.60;88.40;;;;;;5093709;28;20020;-76
2023/06/03 02:31:31;;;;;;;7.10;3.33;;;20.60;88.30;;;;;;5093001;28;20047;-78
2023/06/03 02:33:57;;;;;;;5.40;3.47;;;20.60;88.70;;;;;;5093260;28;20383;-78
2023/06/03 02:36:23;;;;;;;4.38;3.35;;;20.60;88.50;;;;;;5093300;28;20165;-77
2023/06/03 02:38:48;;;;;;;4.47;3.80;;;20.50;88.60;;;;;;5093054;28;20028;-78
2023/06/03 02:41:14;;;;;;;6.38;3.30;;;20.50;88.80;;;;;;5093361;28;20029;-77
2023/06/03 02:43:43;;;;;;;5.45;2.95;;;20.50;88.70;;;;;;5093000;28;20387;-78
2023/06/03 02:46:09;;;;;;;3.92;3.30;;;20.50;88.60;;;;;;5092747;28;20039;-78
2023/06/03 02:48:35;;;;;;;7.13;2.65;;;20.50;88.00;;;;;;5092600;28;20020;-77
2023/06/03 02:51:01;;;;;;;4.80;2.83;;;20.50;87.30;;;;;;5092365;28;20031;-77
2023/06/03 02:53:27;;;;;;;4.05;2.40;;;20.50;86.20;;;;;;5092762;28;20020;-77
2023/06/03 02:55:52;;;;;;;4.20;2.50;;;20.40;85.80;;;;;;5092723;28;20099;-77
2023/06/03 02:58:19;;;;;;;2.53;2.20;;;20.50;85.30;;;;;;5074629;28;20024;-77
2023/06/03 03:00:44;;;;;;;2.95;2.05;;;20.50;84.60;;;;;;5093049;28;20352;-78
2023/06/03 03:03:10;;;;;;;7.30;2.47;;;20.50;83.80;;;;;;5092725;28;20088;-77
2023/06/03 03:05:36;;;;;;;5.53;2.65;;;20.40;83.90;;;;;;5094506;28;20036;-78
2023/06/03 03:08:03;;;;;;;2.38;2.17;;;20.40;83.50;;;;;;5096897;28;20531;-78
2023/06/03 03:10:30;;;;;;;3.08;2.38;;;20.40;82.90;;;;;;5096738;28;20048;-78
2023/06/03 03:12:55;;;;;;;3.45;2.30;;;20.50;81.60;;;;;;5096767;28;20030;-78
2023/06/03 03:15:21;;;;;;;4.55;2.30;;;20.50;81.40;;;;;;5078548;28;20024;-78
2023/06/03 03:17:47;;;;;;;4.75;2.42;;;20.50;81.30;;;;;;5096802;28;20051;-78
2023/06/03 03:20:13;;;;;;;4.63;2.25;;;20.50;81.20;;;;;;5096756;28;20028;-77
2023/06/03 03:22:44;;;;;;;3.50;2.40;;;20.50;81.60;;;;;;5097093;28;20032;-78
2023/06/03 03:25:11;;;;;;;3.38;2.40;;;20.50;81.50;;;;;;5096725;28;20376;-77
2023/06/03 03:27:37;;;;;;;3.17;2.45;;;20.50;81.80;;;;;;5096508;28;20032;-76
2023/06/03 03:30:04;;;;;;;3.38;2.65;;;20.50;80.90;;;;;;5096685;28;20031;-77
2023/06/03 03:32:35;;;;;;;3.85;2.47;;;20.50;80.70;;;;;;5078678;28;20066;-78
2023/06/03 03:35:15;;;;;;;3.83;2.40;;;20.60;81.50;;;;;;5096685;28;20054;-78
2023/06/03 03:37:41;;;;;;;2.88;2.28;;;20.50;81.80;;;;;;5096527;28;20063;-78
2023/06/03 03:40:22;;;;;;;3.78;2.83;;;20.50;82.10;;;;;;5096196;28;20532;-76
2023/06/03 03:42:57;;;;;;;5.22;2.30;;;20.50;82.20;;;;;;5096761;28;20476;-77
2023/06/03 03:45:30;;;;;;;3.03;2.40;;;20.50;82.10;;;;;;5096588;28;20039;-78
2023/06/03 03:48:04;;;;;;;5.40;2.45;;;20.50;82.30;;;;;;5096314;28;20028;-77
2023/06/03 03:50:48;;;;;;;3.13;2.65;;;20.40;82.50;;;;;;5077905;28;20091;-78
2023/06/03 03:53:21;;;;;;;2.97;2.67;;;20.50;82.40;;;;;;5096299;28;20024;-78
2023/06/03 03:55:49;;;;;;;6.43;2.63;;;20.40;82.60;;;;;;5096198;28;20020;-78
2023/06/03 03:58:26;;;;;;;3.28;2.45;;;20.40;82.80;;;;;;5095885;28;20028;-78
2023/06/03 04:00:59;;;;;;;3.30;2.55;;;20.30;83.20;;;;;;5095937;28;20375;-78
2023/06/03 04:03:25;;;;;;;4.43;2.90;;;20.40;83.70;;;;;;5095825;28;20407;-77
2023/06/03 04:05:52;;;;;;;5.22;2.70;;;20.40;83.50;;;;;;5095831;28;20041;-79
2023/06/03 04:08:39;;;;;;;3.95;2.97;;;20.40;84.20;;;;;;5096124;28;20018;-77
2023/06/03 04:11:07;;;;;;;5.20;2.40;;;20.40;84.30;;;;;;5095736;28;20480;-78
2023/06/03 04:13:36;;;;;;;5.03;2.72;;;20.40;84.10;;;;;;5095949;28;20322;-78
2023/06/03 04:16:28;;;;;;;6.65;2.90;;;20.40;84.20;;;;;;5077547;28;20031;-78
2023/06/03 04:18:54;;;;;;;3.78;2.42;;;20.40;84.40;;;;;;5077602;28;20032;-78
2023/06/03 04:21:20;;;;;;;3.50;2.50;;;20.40;84.70;;;;;;5095589;28;20016;-78
2023/06/03 04:23:46;;;;;;;3.45;2.47;;;20.40;84.80;;;;;;5095506;28;20020;-78
2023/06/03 04:26:17;;;;;;;5.43;2.58;;;20.40;84.90;;;;;;5095506;28;20028;-78
2023/06/03 04:28:43;;;;;;;4.30;2.60;;;20.40;85.30;;;;;;5095529;28;20491;-78
2023/06/03 04:31:08;;;;;;;3.05;2.50;;;20.40;85.00;;;;;;5095295;28;20048;-77
2023/06/03 04:33:34;;;;;;;3.97;2.63;;;20.40;85.40;;;;;;5095389;28;20038;-78
2023/06/03 04:36:00;;;;;;;4.50;2.50;;;20.40;85.50;;;;;;5077455;28;20532;-77
2023/06/03 04:38:26;;;;;;;5.03;2.65;;;20.40;85.60;;;;;;5095122;28;20024;-78
2023/06/03 04:40:53;;;;;;;3.35;2.40;;;20.40;84.90;;;;;;5095122;28;20103;-78
2023/06/03 04:43:18;;;;;;;2.88;2.13;;;20.40;84.50;;;;;;5095340;28;20020;-78
2023/06/03 04:45:45;;;;;;;4.85;2.42;;;20.40;84.30;;;;;;5095023;28;20085;-78
2023/06/03 04:48:12;;;;;;;4.38;2.38;;;20.40;84.50;;;;;;5095231;28;20095;-78
2023/06/03 04:50:38;;;;;;;3.08;2.30;;;20.40;84.10;;;;;;5094890;28;20024;-78
2023/06/03 04:53:04;;;;;;;3.67;2.60;;;20.40;84.30;;;;;;5095047;28;20467;-78
2023/06/03 04:55:31;;;;;;;3.45;2.50;;;20.40;84.20;;;;;;5094723;28;20043;-78
2023/06/03 04:58:00;;;;;;;3.83;2.90;;;20.40;84.20;;;;;;5076817;28;20035;-78
2023/06/03 05:00:27;;;;;;;4.10;2.40;;;20.40;84.60;;;;;;5094977;28;20020;-78
2023/06/03 05:02:56;;;;;;;3.95;2.70;;;20.50;85.20;;;;;;5095048;28;20059;-78
2023/06/03 05:05:23;;;;;;;4.38;2.47;;;20.50;85.00;;;;;;5094605;28;20024;-78
2023/06/03 05:07:50;;;;;;;2.78;2.47;;;20.50;85.10;;;;;;5096128;28;20028;-77
2023/06/03 05:10:16;;;;;;;2.95;2.47;;;20.50;85.30;;;;;;5094361;28;20043;-77
2023/06/03 05:12:42;;;;;;;3.33;2.20;;;20.50;84.90;;;;;;5094403;28;20024;-78
2023/06/03 05:15:08;;;;;;;2.58;2.00;;;20.50;84.60;;;;;;5094408;28;20028;-78
2023/06/03 05:17:34;;;;;;;4.15;2.75;;;20.60;84.50;;;;;;5094073;28;20392;-76
2023/06/03 05:20:00;;;;;;;2.90;2.50;;;20.50;84.40;;;;;;5094213;28;20024;-78
2023/06/03 05:22:25;;;;;;;6.88;2.70;;;20.60;84.50;;;;;;5076118;28;20039;-78
2023/06/03 05:24:51;;;;;;;3.75;2.92;;;20.60;84.50;;;;;;5094188;28;20047;-78
2023/06/03 05:27:17;;;;;;;3.75;2.50;;;20.60;84.20;;;;;;5093901;28;20377;-76
2023/06/03 05:29:45;;;;;;;2.63;2.35;;;20.60;84.70;;;;;;5093711;28;20024;-77
2023/06/03 05:32:11;;;;;;;3.63;2.72;;;20.70;85.10;;;;;;5094330;28;20035;-77
2023/06/03 05:34:37;;;;;;;3.45;2.95;;;20.60;85.40;;;;;;5094196;28;20024;-77
2023/06/03 05:37:03;;;;;;;3.67;2.55;;;20.70;85.60;;;;;;5094117;28;20077;-77
2023/06/03 05:39:28;;;;;;;4.28;2.80;;;20.70;85.90;;;;;;5093816;28;20020;-73
2023/06/03 05:41:54;;;;;;;3.05;2.60;;;20.70;86.50;;;;;;5094090;28;20020;-74
2023/06/03 05:44:20;;;;;;;3.17;2.50;;;20.70;86.50;;;;;;5094003;28;20023;-74
2023/06/03 05:46:45;;;;;;;4.05;2.88;;;20.70;85.70;;;;;;5093671;28;20111;-74
2023/06/03 05:49:11;;;;;;;6.55;2.55;;;20.70;84.70;;;;;;5093907;28;20024;-74
2023/06/03 05:51:37;;;;;;;4.40;2.42;;;20.70;84.00;;;;;;5093742;28;20039;-74
2023/06/03 05:54:04;;;;;;;4.93;2.60;;;20.80;83.70;;;;;;5093403;28;20036;-75
2023/06/03 05:56:30;;;;;;;3.72;2.70;;;20.90;83.50;;;;;;5093500;28;20074;-74
2023/06/03 05:58:58;;;;;;;3.63;2.55;;;20.90;83.20;;;;;;5093839;28;20028;-73
2023/06/03 06:01:23;;;;;;;4.03;2.33;;;21.00;82.80;;;;;;5075687;28;20426;-75
2023/06/03 06:03:49;;;;;;;2.80;2.30;;;21.00;82.50;;;;;;5093488;28;20032;-74
2023/06/03 06:06:15;;;;;;;4.53;2.65;;;21.00;82.30;;;;;;5093371;28;20032;-74
2023/06/03 06:08:42;;;;;;;3.97;3.08;;;21.10;82.30;;;;;;5093760;28;20027;-74
2023/06/03 06:11:09;;;;;;;5.30;2.80;;;21.10;82.10;;;;;;5093326;28;20073;-74
2023/06/03 06:13:35;;;;;;;3.05;2.70;;;21.20;82.00;;;;;;5093262;28;20028;-74
2023/06/03 06:16:04;;;;;;;5.63;3.10;;;21.20;81.30;;;;;;5093348;28;20078;-73
2023/06/03 06:18:30;;;;;;;4.43;2.90;;;21.30;81.40;;;;;;5093030;28;20080;-72
2023/06/03 06:20:57;;;;;;;5.07;2.90;;;21.30;81.90;;;;;;5093374;28;20457;-72
2023/06/03 06:23:23;;;;;;;4.10;2.78;;;21.40;82.60;;;;;;5093353;28;20145;-72
2023/06/03 06:25:50;;;;;;;6.70;3.00;;;21.40;82.40;;;;;;5093355;28;20450;-72
2023/06/03 06:28:24;;;;;;;4.50;3.45;;;21.40;81.90;;;;;;5093198;28;20129;-72
2023/06/03 06:30:55;;;;;;;6.30;3.25;;;21.50;81.60;;;;;;5093197;28;20106;-72
2023/06/03 06:33:21;;;;;;;8.25;3.97;;;21.50;80.90;;;;;;5093421;28;20062;-73
2023/06/03 06:35:47;;;;;;;5.65;3.20;;;21.50;80.70;;;;;;5091838;28;20032;-73
2023/06/03 06:38:13;;;;;;;6.82;3.13;;;21.50;80.60;;;;;;5092988;28;20145;-73
2023/06/03 06:40:40;;;;;;;5.60;3.50;;;21.50;80.80;;;;;;5092356;28;20048;-72
2023/06/03 06:43:12;;;;;;;4.03;3.28;;;21.60;81.40;;;;;;5092947;28;20172;-72
2023/06/03 06:45:37;;;;;;;6.95;3.42;;;21.60;81.40;;;;;;5092869;28;20518;-73
2023/06/03 06:48:08;;;;;;;6.30;3.53;;;21.60;80.70;;;;;;5092979;28;20042;-73
2023/06/03 06:50:49;;;;;;;7.35;3.30;;;21.70;80.50;;;;;;5092172;28;20039;-73
2023/06/03 06:53:15;;;;;;;7.72;3.30;;;21.70;80.50;;;;;;5092663;28;20035;-73
2023/06/03 06:55:46;;;;;;;6.18;3.20;;;21.80;80.60;;;;;;5092725;28;20022;-73
2023/06/03 06:58:13;;;;;;;8.30;3.08;;;21.80;80.00;;;;;;5092919;28;20016;-73
2023/06/03 07:00:38;;;;;;;7.55;3.80;;;21.90;79.60;;;;;;5092749;28;20025;-73
2023/06/03 07:03:13;;;;;;;5.90;3.63;;;21.90;79.70;;;;;;5092807;28;20388;-73
2023/06/03 07:05:38;;;;;;;10.52;4.10;;;21.90;79.30;;;;;;5092951;28;20024;-73
2023/06/03 07:08:05;;;;;;;5.68;3.60;;;22.00;79.00;;;;;;5092594;28;20498;-73
2023/06/03 07:10:31;;;;;;;8.55;3.78;;;22.00;78.40;;;;;;5091446;28;20067;-73
2023/06/03 07:12:57;;;;;;;8.70;4.07;;;22.10;78.20;;;;;;5092436;28;20024;-73
2023/06/03 07:15:24;;;;;;;9.00;4.25;;;22.00;77.80;;;;;;5092520;28;20070;-73
2023/06/03 07:17:50;;;;;;;4.93;3.80;;;22.10;77.70;;;;;;5092730;28;20078;-73
2023/06/03 07:20:31;;;;;;;7.60;3.80;;;22.00;77.70;;;;;;5092591;28;20059;-73
2023/06/03 07:22:57;;;;;;;9.27;4.10;;;22.00;77.10;;;;;;5092363;28;20464;-73
2023/06/03 07:25:28;;;;;;;7.90;3.67;;;22.00;77.00;;;;;;5092537;28;20472;-73
2023/06/03 07:27:54;;;;;;;7.30;4.15;;;22.00;77.50;;;;;;5092730;28;20525;-73
2023/06/03 07:30:20;;;;;;;7.85;3.75;;;22.00;78.10;;;;;;5074586;28;20065;-73
2023/06/03 07:32:45;;;;;;;5.57;3.47;;;22.00;77.80;;;;;;5092849;28;20024;-73
2023/06/03 07:35:16;;;;;;;7.32;4.40;;;22.00;78.10;;;;;;5092714;28;20025;-73
2023/06/03 07:37:41;;;;;;;5.93;4.13;;;22.00;78.30;;;;;;5092473;28;20024;-72
2023/06/03 07:40:15;;;;;;;5.38;4.10;;;22.00;78.70;;;;;;5092432;28;20043;-73
2023/06/03 07:42:47;;;;;;;7.45;4.00;;;22.10;78.20;;;;;;5092492;28;20020;-73
2023/06/03 07:45:14;;;;;;;6.90;4.10;;;22.10;78.10;;;;;;5092378;28;20028;-73
2023/06/03 07:47:44;;;;;;;6.40;3.88;;;22.10;77.50;;;;;;5092541;28;20037;-73
2023/06/03 07:50:24;;;;;;;5.25;3.58;;;22.10;77.20;;;;;;5092289;28;20024;-73
2023/06/03 07:53:08;;;;;;;4.85;3.47;;;22.20;76.60;;;;;;5096039;28;20027;-73
2023/06/03 07:55:46;;;;;;;6.78;3.90;;;22.10;76.70;;;;;;5096425;28;20027;-74
2023/06/03 07:58:14;;;;;;;7.38;3.83;;;22.10;77.10;;;;;;5096162;28;20024;-73
2023/06/03 08:00:43;;;;;;;3.80;3.22;;;22.20;76.90;;;;;;5096042;28;20033;-73
2023/06/03 08:03:12;;;;;;;6.65;3.70;;;22.20;77.00;;;;;;5095811;28;20034;-73
2023/06/03 08:05:38;;;;;;;7.63;4.35;;;22.20;76.60;;;;;;5095778;28;20020;-73
2023/06/03 08:08:05;;;;;;;8.45;3.75;;;22.20;76.00;;;;;;5095768;28;20028;-73
2023/06/03 08:10:34;;;;;;;4.47;3.85;;;22.30;76.40;;;;;;5100637;22;20053;-69
2023/06/03 08:13:16;;;;;;;9.32;4.45;;;22.20;75.90;;;;;;5076021;28;20040;-69
2023/06/03 08:16:08;;;;;;;9.43;4.03;;;22.30;76.20;;;;;;5075679;28;20476;-68
2023/06/03 08:19:13;;;;;;;6.82;4.38;;;22.30;75.70;;;;;;5054832;28;20040;-69
2023/06/03 08:21:39;;;;;;;5.47;3.75;;;22.30;75.70;;;;;;5035201;28;20447;-68
2023/06/03 08:24:17;;;;;;;7.20;4.10;;;22.30;75.20;;;;;;5075555;28;20096;-69
2023/06/03 08:26:50;;;;;;;4.95;4.05;;;22.40;74.60;;;;;;5075536;28;20043;-68
2023/06/03 08:32:05;;;;;;;8.93;4.07;;;22.40;74.80;;;;;;5013215;28;20441;-71
2023/06/03 08:34:34;;;;;;;7.30;3.67;;;22.50;74.70;;;;;;5013507;28;20571;-69
2023/06/03 08:37:01;;;;;;;6.68;4.13;;;22.50;74.40;;;;;;5046285;28;20044;-71
2023/06/03 08:39:27;;;;;;;8.77;4.65;;;22.50;74.50;;;;;;5075324;28;20088;-71
2023/06/03 08:42:00;;;;;;;13.30;4.97;;;22.60;74.90;;;;;;5075448;28;20078;-71
2023/06/03 08:44:44;;;;;;;8.02;3.85;;;22.60;73.70;;;;;;5075120;28;20027;-71
2023/06/03 08:47:17;;;;;;;12.52;4.85;;;22.60;73.20;;;;;;5073745;28;20127;-72
2023/06/03 08:50:05;;;;;;;6.32;4.13;;;22.60;73.30;;;;;;5075016;28;20024;-71
2023/06/03 08:52:35;;;;;;;12.45;5.35;;;22.70;73.20;;;;;;5047649;28;20427;-71
2023/06/03 08:55:01;;;;;;;9.70;4.40;;;22.70;72.30;;;;;;5074816;28;20112;-71
2023/06/03 08:58:06;;;;;;;5.82;4.15;;;22.70;72.80;;;;;;5074582;28;20082;-71
2023/06/03 09:00:33;;;;;;;6.95;4.13;;;22.80;71.80;;;;;;5074842;28;20027;-71
2023/06/03 09:03:01;;;;;;;6.13;4.10;;;22.80;71.90;;;;;;5073734;28;20033;-71
2023/06/03 09:05:27;;;;;;;7.00;4.22;;;22.80;71.50;;;;;;5074792;28;20840;-71
2023/06/03 09:07:53;;;;;;;5.82;4.32;;;22.80;71.50;;;;;;5074577;28;20020;-72
2023/06/03 09:10:25;;;;;;;7.43;4.18;;;22.80;71.10;;;;;;5074405;28;20048;-71
2023/06/03 09:12:54;;;;;;;7.55;4.18;;;22.80;70.60;;;;;;5056506;28;20020;-71
2023/06/03 09:15:21;;;;;;;6.15;3.97;;;22.80;70.30;;;;;;5074512;28;20017;-71
2023/06/03 09:17:47;;;;;;;8.57;4.50;;;22.90;70.10;;;;;;5074531;28;20492;-71
2023/06/03 09:20:14;;;;;;;8.95;4.55;;;22.90;70.60;;;;;;5074356;28;20021;-71
2023/06/03 09:22:47;;;;;;;6.95;4.00;;;22.90;70.60;;;;;;5074553;28;20029;-71
2023/06/03 09:25:13;;;;;;;6.07;3.88;;;22.90;70.70;;;;;;5074190;28;20031;-71
2023/06/03 09:27:40;;;;;;;8.30;4.55;;;23.00;70.20;;;;;;5074153;28;20503;-71
2023/06/03 09:30:07;;;;;;;10.27;4.40;;;23.10;71.00;;;;;;5073978;28;20040;-71
2023/06/03 09:32:35;;;;;;;7.65;3.90;;;23.10;71.70;;;;;;5074145;28;20060;-71
2023/06/03 09:35:04;;;;;;;9.45;4.15;;;23.20;71.70;;;;;;5074033;28;20017;-71
2023/06/03 09:37:34;;;;;;;8.48;4.10;;;23.20;70.10;;;;;;5073675;28;20016;-72
2023/06/03 09:40:01;;;;;;;13.90;4.13;;;23.30;69.10;;;;;;5073955;28;20029;-72
2023/06/03 09:42:44;;;;;;;7.15;4.78;;;23.40;70.00;;;;;;5056551;28;20025;-71
2023/06/03 09:45:23;;;;;;;6.70;3.83;;;23.40;69.70;;;;;;5074591;28;20380;-72
2023/06/03 09:47:50;;;;;;;6.88;4.20;;;23.50;69.20;;;;;;5074396;28;20049;-71
2023/06/03 09:50:21;;;;;;;6.13;4.43;;;23.50;68.90;;;;;;5074453;28;20028;-72
2023/06/03 09:53:17;;;;;;;9.30;4.07;;;23.60;68.60;;;;;;5073232;28;20078;-72
2023/06/03 09:56:27;;;;;;;9.48;3.63;;;23.70;68.20;;;;;;5073933;28;20032;-71
2023/06/03 09:59:32;;;;;;;6.40;4.03;;;23.70;67.90;;;;;;5070680;28;20036;-71
2023/06/03 10:02:23;;;;;;;8.07;4.07;;;23.80;66.40;;;;;;5050734;28;20043;-72
2023/06/03 10:05:26;;;;;;;5.20;4.10;;;23.80;65.90;;;;;;5073956;28;20418;-72
2023/06/03 10:08:11;;;;;;;7.50;3.95;;;23.90;66.30;;;;;;5070206;28;20045;-72
2023/06/03 10:10:57;;;;;;;8.13;3.83;;;24.00;65.00;;;;;;5062171;28;20048;-72
2023/06/03 10:13:41;;;;;;;6.80;3.55;;;24.00;65.70;;;;;;5053288;28;20075;-72
2023/06/03 10:16:13;;;;;;;9.85;4.22;;;24.10;65.70;;;;;;5050360;28;20025;-70
2023/06/03 10:18:41;;;;;;;9.15;4.32;;;24.10;63.70;;;;;;5053233;28;20029;-69
2023/06/03 10:21:11;;;;;;;6.38;4.32;;;24.20;64.00;;;;;;5053360;28;20035;-69
2023/06/03 10:23:39;;;;;;;7.03;4.03;;;24.20;63.20;;;;;;5053484;28;20458;-69
2023/06/03 10:26:06;;;;;;;8.35;4.25;;;24.20;62.80;;;;;;5053206;28;20103;-70
2023/06/03 10:28:32;;;;;;;10.48;3.90;;;24.30;61.70;;;;;;5053312;28;20416;-71
2023/06/03 10:31:00;;;;;;;6.47;3.85;;;24.30;62.70;;;;;;5053247;28;20029;-71
2023/06/03 10:33:28;;;;;;;7.07;4.00;;;24.30;63.30;;;;;;5053489;28;20404;-71
2023/06/03 10:35:56;;;;;;;9.00;3.55;;;24.40;61.90;;;;;;5053253;28;20053;-71
2023/06/03 10:38:22;;;;;;;6.90;3.67;;;24.40;62.10;;;;;;5053094;28;20036;-71
2023/06/03 10:40:49;;;;;;;7.90;3.85;;;24.50;61.00;;;;;;5052877;28;20024;-71
2023/06/03 10:43:16;;;;;;;11.48;3.90;;;24.50;60.00;;;;;;5052924;28;20021;-70
2023/06/03 10:45:43;;;;;;;6.13;3.95;;;24.50;60.70;;;;;;5052857;28;20037;-70
2023/06/03 10:48:13;;;;;;;6.32;3.67;;;24.50;61.00;;;;;;5053262;28;20377;-71
2023/06/03 10:50:54;;;;;;;6.72;4.05;;;24.50;61.70;;;;;;5053055;28;20495;-71
2023/06/03 10:53:53;;;;;;;8.40;3.97;;;24.50;60.90;;;;;;5052837;28;20059;-70
2023/06/03 10:56:29;;;;;;;6.55;4.18;;;24.50;61.50;;;;;;5053210;28;20481;-70
2023/06/03 10:59:09;;;;;;;10.25;4.13;;;24.50;62.30;;;;;;5052711;28;20054;-71
2023/06/03 11:02:01;;;;;;;7.13;3.50;;;24.50;60.60;;;;;;5052808;28;20473;-71
2023/06/03 11:04:28;;;;;;;;;;;24.50;60.70;;;;;;5053226;28;20067;-71
2023/06/03 11:06:54;;;;;;;7.78;4.15;;;24.60;61.50;;;;;;5052568;28;19924;-70
2023/06/03 11:09:38;;;;;;;8.27;4.30;;;24.60;61.50;;;;;;5052817;28;20029;-71
2023/06/03 11:12:09;;;;;;;7.63;4.07;;;24.60;62.00;;;;;;5072351;28;20025;-70
2023/06/03 11:14:42;;;;;;;8.35;4.28;;;24.70;62.00;;;;;;5072461;28;20029;-70
2023/06/03 11:17:10;;;;;;;9.18;4.30;;;24.70;63.00;;;;;;5072749;28;20384;-72
2023/06/03 11:19:45;;;;;;;10.40;4.07;;;24.70;62.80;;;;;;5073152;28;20097;-71
2023/06/03 11:22:27;;;;;;;9.82;4.50;;;24.80;63.10;;;;;;5073207;28;20042;-72
2023/06/03 11:24:53;;;;;;;;;;;24.80;62.30;;;;;;5073277;28;20016;-71
2023/06/03 11:27:19;;;;;;;11.90;4.28;;;24.90;61.60;;;;;;5075386;28;20417;-72
2023/06/03 11:30:17;;;;;;;;;;;;;;;;;;;;;
2023/06/03 11:33:06;;;;;;;;;;;24.90;61.80;;;;;;5074788;28;20579;-71
2023/06/03 11:36:23;;;;;;;6.82;4.28;;;24.90;61.60;;;;;;5063103;28;20355;-71
2023/06/03 11:39:27;;;;;;;12.15;4.05;;;24.90;61.50;;;;;;5054515;28;20033;-71
2023/06/03 11:42:21;;;;;;;9.52;4.00;;;24.90;61.40;;;;;;5067573;28;20455;-71
2023/06/03 11:51:58;;;;;;;7.63;4.10;;;25.10;60.30;;;;;;4991288;28;20033;-71
2023/06/03 11:54:35;;;;;;;;;;;;;;;;;;;;;
2023/06/03 11:57:03;;;;;;;5.45;4.03;;;25.10;60.10;;;;;;5010172;28;20038;-71
2023/06/03 11:59:35;;;;;;;7.25;4.25;;;25.10;60.40;;;;;;5057797;28;20029;-70
2023/06/03 12:02:03;;;;;;;9.95;4.28;;;25.10;60.00;;;;;;5075734;28;20361;-73
2023/06/03 12:04:30;;;;;;;9.57;4.03;;;25.10;60.40;;;;;;5073611;28;20680;-70
2023/06/03 12:06:58;;;;;;;6.32;4.18;;;25.10;60.20;;;;;;5072687;28;20038;-71
2023/06/03 12:09:26;;;;;;;5.22;3.72;;;25.20;60.20;;;;;;5072713;28;20383;-70
2023/06/03 12:11:55;;;;;;;10.07;3.80;;;25.20;60.80;;;;;;5074963;28;20071;-72
2023/06/03 12:14:34;;;;;;;7.50;3.78;;;25.20;61.40;;;;;;5075467;28;20024;-70
2023/06/03 12:17:14;;;;;;;11.32;4.32;;;25.30;60.20;;;;;;5055091;28;20028;-71
2023/06/03 12:19:42;;;;;;;8.23;4.10;;;25.30;60.90;;;;;;5072532;28;20029;-74
2023/06/03 12:22:08;;;;;;;5.50;3.50;;;25.40;59.00;;;;;;5074184;28;20028;-70
2023/06/03 12:24:34;;;;;;;7.07;4.05;;;25.40;59.80;;;;;;5075365;28;20507;-70
2023/06/03 12:27:13;;;;;;;7.70;4.25;;;25.40;59.50;;;;;;5074951;28;20037;-72
2023/06/03 12:29:44;;;;;;;8.73;4.03;;;25.40;59.50;;;;;;5074987;28;20021;-71
2023/06/03 12:32:11;;;;;;;10.98;3.50;;;25.40;59.00;;;;;;5075386;28;20025;-72
2023/06/03 12:34:38;;;;;;;8.10;4.07;;;25.50;59.10;;;;;;5074940;28;20566;-72
2023/06/03 12:37:07;;;;;;;9.30;3.78;;;25.50;60.60;;;;;;5056165;28;20048;-73
2023/06/03 12:39:40;;;;;;;5.13;3.55;;;25.50;58.50;;;;;;5056114;28;20028;-72
2023/06/03 12:42:06;;;;;;;9.07;3.97;;;25.50;58.20;;;;;;5074699;28;20032;-72
2023/06/03 12:44:46;;;;;;;5.10;3.45;;;25.50;58.00;;;;;;5074646;28;20031;-72
2023/06/03 12:47:14;;;;;;;6.55;3.92;;;25.50;59.00;;;;;;5074314;28;20040;-72
2023/06/03 12:49:40;;;;;;;8.30;3.97;;;25.50;58.30;;;;;;5074047;28;20020;-72
2023/06/03 12:52:13;;;;;;;8.13;4.07;;;25.50;58.00;;;;;;5074647;28;20539;-72
2023/06/03 12:54:40;;;;;;;10.32;3.95;;;25.50;58.10;;;;;;5074087;28;20029;-72
2023/06/03 12:57:07;;;;;;;5.38;4.03;;;25.50;57.80;;;;;;5074868;28;20077;-72
2023/06/03 12:59:33;;;;;;;6.63;4.20;;;25.50;58.40;;;;;;5075121;28;20058;-73
2023/06/03 13:02:00;;;;;;;9.80;4.10;;;25.50;58.30;;;;;;5075119;28;20055;-72
2023/06/03 13:04:26;;;;;;;7.97;4.30;;;25.50;58.70;;;;;;5075013;28;20024;-72
2023/06/03 13:07:11;;;;;;;;;;;;;;;;;;;;;
2023/06/03 13:10:08;;;;;;;11.98;4.22;;;25.60;58.80;;;;;;5074311;28;20384;-73
2023/06/03 13:12:38;;;;;;;8.57;4.18;;;25.60;58.90;;;;;;5036856;28;20398;-73
2023/06/03 13:19:04;;;;;;;9.70;4.25;;;25.70;58.90;;;;;;5012732;28;20030;-73
2023/06/03 13:22:06;;;;;;;11.43;5.72;;;25.70;59.00;;;;;;5012202;28;20040;-72